Time;durP1;ratioP1;P1;durP2;ratioP2;P2;SDS_P1;SDS_P2;PMS_P1;PMS_P2;Temp;Humidity;BMP_temperature;BMP_pressure;BME280_temperature;BME280_humidity;BME280_pressure;Samples;Min_cycle;Max_cycle;Signal;HPM_P1;HPM_P2
2022/04/30 00:00:29;;;;;;;11.00;5.90;;;;;;;6.28;59.97;99231.11;106409;1277;24068;-85
2022/04/30 00:03:11;;;;;;;14.90;6.50;;;;;;;6.25;60.09;99231.20;106176;1277;137478;-86
2022/04/30 00:05:38;;;;;;;11.40;6.40;;;;;;;6.24;60.22;99229.74;106167;1277;23154;-86
2022/04/30 00:08:08;;;;;;;;;;;;;;;6.22;60.03;99232.19;106052;1278;22544;-86
2022/04/30 00:10:38;;;;;;;11.90;6.90;;;;;;;6.19;60.26;99233.38;106260;1280;123803;-86
2022/04/30 00:13:19;;;;;;;13.00;6.90;;;;;;;6.15;60.34;99231.18;106176;1278;22671;-87
2022/04/30 00:15:46;;;;;;;16.40;7.20;;;;;;;6.12;60.40;99233.58;106334;1277;137453;-86
2022/04/30 00:18:16;;;;;;;15.30;6.70;;;;;;;6.09;60.43;99233.67;106279;1277;25283;-87
2022/04/30 00:20:47;;;;;;;13.60;6.60;;;;;;;6.06;60.46;99231.38;106198;1277;24350;-87
2022/04/30 00:23:21;;;;;;;12.80;5.90;;;;;;;6.04;60.47;99229.20;105871;1278;137840;-87
2022/04/30 00:25:50;;;;;;;10.10;5.90;;;;;;;6.05;60.50;99232.77;106059;1280;22566;-85
2022/04/30 00:28:19;;;;;;;15.30;7.40;;;;;;;6.06;60.58;99231.95;105886;1279;137356;-88
2022/04/30 00:30:46;;;;;;;14.00;5.70;;;;;;;6.04;60.65;99231.73;106084;1280;22586;-85
2022/04/30 00:33:13;;;;;;;15.00;7.20;;;;;;;6.03;60.72;99228.15;106121;1280;137686;-88
2022/04/30 00:35:40;;;;;;;14.10;7.30;;;;;;;6.01;60.90;99226.59;106192;1278;25375;-85
2022/04/30 00:38:07;;;;;;;15.20;6.80;;;;;;;5.99;61.02;99225.65;105943;1278;22553;-86
2022/04/30 00:40:33;;;;;;;11.90;6.60;;;;;;;5.96;61.04;99223.64;105780;1280;137674;-86
2022/04/30 00:42:59;;;;;;;13.70;6.00;;;;;;;5.94;61.11;99224.98;105914;1278;22544;-86
2022/04/30 00:45:26;;;;;;;11.10;5.80;;;;;;;5.90;61.07;99220.57;105836;1277;137742;-87
2022/04/30 00:47:52;;;;;;;9.80;5.60;;;;;;;5.89;61.13;99222.27;105973;1277;25251;-87
2022/04/30 00:50:21;;;;;;;11.60;6.40;;;;;;;5.86;61.23;99223.11;105713;1277;22556;-87
2022/04/30 00:52:51;;;;;;;13.10;6.10;;;;;;;5.85;61.21;99223.35;105961;1278;137414;-86
2022/04/30 00:55:22;;;;;;;16.40;6.50;;;;;;;5.82;61.28;99221.91;105927;1280;25460;-87
2022/04/30 00:58:00;;;;;;;12.60;6.40;;;;;;;5.78;61.60;99222.51;105773;1280;137379;-87
2022/04/30 01:00:27;;;;;;;11.10;6.20;;;;;;;5.73;61.72;99221.70;106016;1280;22570;-87
2022/04/30 01:03:02;;;;;;;12.60;6.60;;;;;;;5.68;61.77;99221.39;105815;1280;137815;-86
2022/04/30 01:05:43;;;;;;;12.50;6.30;;;;;;;5.64;62.10;99222.47;106212;1278;22757;-87
2022/04/30 01:08:10;;;;;;;16.30;6.60;;;;;;;5.59;61.99;99219.84;106154;1276;25444;-86
2022/04/30 01:10:36;;;;;;;13.70;6.50;;;;;;;5.54;62.16;99220.92;105780;1280;137715;-86
2022/04/30 01:13:03;;;;;;;13.20;6.70;;;;;;;5.51;62.25;99218.48;105978;1278;22550;-86
2022/04/30 01:15:39;;;;;;;13.90;6.60;;;;;;;5.50;62.52;99217.52;106147;1277;137843;-86
2022/04/30 01:18:10;;;;;;;14.40;7.20;;;;;;;5.51;62.81;99218.16;106078;1277;22702;-86
2022/04/30 01:20:40;;;;;;;14.40;6.10;;;;;;;5.51;62.84;99217.03;105918;1280;25254;-86
2022/04/30 01:23:08;;;;;;;14.10;7.20;;;;;;;5.51;62.83;99215.08;105953;1278;138282;-86
2022/04/30 01:25:44;;;;;;;12.70;6.90;;;;;;;5.49;62.80;99209.91;105873;1277;22553;-86
2022/04/30 01:28:13;;;;;;;14.80;6.90;;;;;;;5.47;62.89;99211.63;105814;1277;138019;-86
2022/04/30 01:30:39;;;;;;;12.60;6.30;;;;;;;5.43;62.94;99215.34;106037;1277;22547;-86
2022/04/30 01:38:27;;;;;;;16.00;7.00;;;;;;;5.27;63.35;99210.27;105848;1280;25502;-87
2022/04/30 01:40:53;;;;;;;12.40;6.20;;;;;;;5.21;63.95;99216.14;105958;1280;137376;-87
2022/04/30 01:43:35;;;;;;;13.70;7.10;;;;;;;5.10;64.46;99218.70;105785;1280;25417;-87
2022/04/30 01:46:03;;;;;;;9.40;5.80;;;;;;;5.03;64.19;99218.17;105828;1278;139549;-86
2022/04/30 01:48:36;;;;;;;10.90;5.50;;;;;;;4.97;64.40;99219.67;106067;1278;22589;-90
2022/04/30 01:51:03;;;;;;;11.30;5.70;;;;;;;4.91;64.49;99219.23;105984;1277;138045;-87
2022/04/30 01:53:34;;;;;;;9.70;6.10;;;;;;;4.88;64.62;99218.94;106030;1277;24331;-87
2022/04/30 01:56:08;;;;;;;11.00;6.40;;;;;;;4.83;64.65;99220.83;105890;1278;22603;-87
2022/04/30 01:58:48;;;;;;;11.80;5.80;;;;;;;4.81;64.87;99213.30;106055;1277;138693;-86
2022/04/30 02:01:15;;;;;;;11.20;6.10;;;;;;;4.82;64.69;99211.90;105827;1281;22570;-89
2022/04/30 02:03:44;;;;;;;;;;;;;;;4.84;64.77;99209.89;105985;1278;137764;-87
2022/04/30 02:06:13;;;;;;;9.40;5.50;;;;;;;4.86;64.70;99208.61;106240;1277;22950;-86
2022/04/30 02:08:43;;;;;;;11.50;5.70;;;;;;;4.86;64.67;99204.35;105904;1280;22576;-87
2022/04/30 02:11:12;;;;;;;9.40;5.80;;;;;;;4.87;64.67;99203.63;105913;1278;137553;-87
2022/04/30 02:13:40;;;;;;;11.10;6.40;;;;;;;4.86;64.70;99201.85;105917;1278;22626;-87
2022/04/30 02:16:09;;;;;;;9.90;6.10;;;;;;;4.85;64.58;99199.69;105988;1277;137437;-87
2022/04/30 02:18:44;;;;;;;10.80;6.30;;;;;;;4.82;64.41;99194.46;106009;1278;24466;-87
2022/04/30 02:21:11;;;;;;;10.90;5.80;;;;;;;4.82;64.52;99193.46;105788;1278;137807;-87
2022/04/30 02:23:39;;;;;;;11.70;5.80;;;;;;;4.79;64.44;99194.84;106171;1277;24434;-87
2022/04/30 02:26:06;;;;;;;10.20;6.20;;;;;;;4.76;64.37;99189.79;106078;1277;25332;-87
2022/04/30 02:28:32;;;;;;;10.80;5.80;;;;;;;4.74;64.39;99190.08;105889;1278;137869;-88
2022/04/30 02:31:03;;;;;;;12.00;5.80;;;;;;;4.69;64.35;99185.25;106114;1277;23085;-88
2022/04/30 02:33:29;;;;;;;11.40;5.70;;;;;;;4.67;64.36;99181.00;105891;1277;137891;-88
2022/04/30 02:35:58;;;;;;;9.70;5.70;;;;;;;4.64;64.46;99179.55;105932;1278;24398;-88
2022/04/30 02:38:26;;;;;;;;;;;;;;;4.61;64.56;99181.96;106233;1278;22694;-88
2022/04/30 02:40:53;;;;;;;9.00;4.40;;;;;;;4.57;64.49;99177.22;105822;1281;124161;-88
2022/04/30 02:43:26;;;;;;;8.30;4.90;;;;;;;4.56;64.44;99175.39;105982;1278;25317;-88
2022/04/30 02:45:55;;;;;;;10.10;5.30;;;;;;;4.55;64.39;99177.29;105941;1278;137322;-87
2022/04/30 02:48:24;;;;;;;7.70;4.90;;;;;;;4.55;64.55;99172.79;106345;1277;25276;-86
2022/04/30 02:50:58;;;;;;;10.20;5.50;;;;;;;4.54;64.29;99169.30;106028;1277;22541;-87
2022/04/30 02:53:27;;;;;;;8.30;4.90;;;;;;;4.55;64.50;99168.77;105696;1281;137333;-88
2022/04/30 02:55:54;;;;;;;8.70;4.50;;;;;;;4.55;64.29;99161.60;106008;1277;24322;-87
2022/04/30 03:01:01;;;;;;;9.00;5.80;;;;;;;4.54;64.32;99157.48;105879;1281;22570;-90
2022/04/30 03:03:50;;;;;;;9.30;5.30;;;;;;;4.53;64.40;99153.23;105687;1281;138030;-87
2022/04/30 03:06:18;;;;;;;8.30;5.20;;;;;;;4.54;64.30;99161.21;105987;1281;22555;-87
2022/04/30 03:09:02;;;;;;;10.60;5.10;;;;;;;4.55;64.70;99159.85;106213;1278;23062;-86
2022/04/30 03:11:31;;;;;;;8.00;4.40;;;;;;;4.55;64.76;99158.39;105879;1277;137277;-86
2022/04/30 03:13:58;;;;;;;12.50;4.70;;;;;;;4.55;64.67;99158.23;106000;1277;23308;-88
2022/04/30 03:21:46;;;;;;;11.30;5.70;;;;;;;4.49;65.25;99154.10;105872;1278;137526;-88
2022/04/30 03:24:21;;;;;;;;;;;;;;;4.45;65.11;99160.89;106091;1277;22547;-88
2022/04/30 03:26:49;;;;;;;8.10;4.50;;;;;;;4.37;65.33;99160.37;105942;1278;24324;-89
2022/04/30 03:29:16;;;;;;;9.60;4.80;;;;;;;4.34;65.37;99163.52;105872;1278;137320;-88
2022/04/30 03:31:43;;;;;;;9.80;4.70;;;;;;;4.29;65.43;99165.04;106065;1278;22582;-88
2022/04/30 03:34:15;;;;;;;8.10;5.30;;;;;;;4.26;65.24;99167.66;105975;1277;137170;-87
2022/04/30 03:36:43;;;;;;;9.60;4.60;;;;;;;4.25;65.32;99166.06;106307;1277;22556;-88
2022/04/30 03:39:13;;;;;;;8.00;4.20;;;;;;;4.25;65.04;99162.65;105999;1277;23306;-88
2022/04/30 03:41:43;;;;;;;11.90;4.70;;;;;;;4.25;65.03;99161.57;105969;1278;137438;-87
2022/04/30 03:44:09;;;;;;;12.10;5.30;;;;;;;4.25;65.36;99164.00;106118;1277;22556;-87
2022/04/30 03:46:35;;;;;;;8.10;4.60;;;;;;;4.27;65.82;99163.85;105894;1277;138466;-87
2022/04/30 03:49:04;;;;;;;11.10;4.40;;;;;;;4.29;66.28;99163.88;106073;1277;22569;-87
2022/04/30 03:51:34;;;;;;;11.90;5.00;;;;;;;4.32;66.63;99165.79;105935;1277;137949;-88
2022/04/30 03:54:00;;;;;;;10.20;4.90;;;;;;;4.35;66.40;99166.56;106005;1277;22547;-87
2022/04/30 03:56:26;;;;;;;11.90;5.60;;;;;;;4.37;66.14;99167.96;106061;1277;22573;-88
2022/04/30 03:58:52;;;;;;;9.20;4.50;;;;;;;4.38;66.27;99168.39;105926;1278;137317;-88
2022/04/30 04:01:22;;;;;;;10.60;5.70;;;;;;;4.39;66.19;99169.35;105970;1277;22572;-88
2022/04/30 04:03:50;;;;;;;10.80;6.20;;;;;;;4.38;66.03;99169.92;105806;1281;137765;-88
2022/04/30 04:06:19;;;;;;;9.80;5.40;;;;;;;4.35;66.29;99172.66;106171;1277;22623;-88
2022/04/30 04:09:00;;;;;;;11.80;5.60;;;;;;;4.32;66.43;99169.81;105977;1278;22569;-88
2022/04/30 04:11:27;;;;;;;8.60;5.00;;;;;;;4.33;66.57;99171.35;105800;1277;137582;-87
2022/04/30 04:19:22;;;;;;;9.90;5.20;;;;;;;4.23;67.01;99174.37;106106;1277;22617;-88
2022/04/30 04:21:48;;;;;;;13.80;5.40;;;;;;;4.21;67.22;99174.55;105829;1277;137386;-87
2022/04/30 04:26:56;;;;;;;7.20;4.20;;;;;;;4.34;66.78;99174.27;106010;1277;24248;-88
2022/04/30 04:29:22;;;;;;;10.70;5.00;;;;;;;4.43;66.79;99175.46;105860;1278;137363;-87
2022/04/30 04:31:49;;;;;;;8.50;5.00;;;;;;;4.53;66.74;99177.84;106170;1277;22674;-88
2022/04/30 04:34:15;;;;;;;9.90;5.60;;;;;;;4.64;66.85;99173.73;105761;1278;137506;-88
2022/04/30 04:36:42;;;;;;;8.30;5.30;;;;;;;4.72;66.58;99174.49;105915;1278;24287;-87
2022/04/30 04:39:13;;;;;;;11.00;4.40;;;;;;;4.78;66.23;99178.09;106365;1277;23941;-88
2022/04/30 04:41:42;;;;;;;9.30;4.90;;;;;;;4.83;66.19;99178.02;106295;1278;137819;-88
2022/04/30 04:44:09;;;;;;;11.60;5.60;;;;;;;4.89;66.11;99174.55;106317;1277;22560;-87
2022/04/30 04:46:38;;;;;;;10.20;5.90;;;;;;;4.95;66.16;99171.68;106050;1277;137582;-88
2022/04/30 04:49:06;;;;;;;13.30;6.00;;;;;;;5.03;65.80;99176.79;106155;1280;25496;-87
2022/04/30 04:51:34;;;;;;;9.70;5.30;;;;;;;5.11;65.61;99176.26;106240;1277;138216;-86
2022/04/30 04:54:04;;;;;;;9.50;5.00;;;;;;;5.19;65.43;99172.09;106391;1277;22575;-88
2022/04/30 04:56:31;;;;;;;11.30;4.90;;;;;;;5.28;65.34;99173.84;106523;1277;22547;-88
2022/04/30 04:59:13;;;;;;;9.00;5.10;;;;;;;5.38;65.08;99170.45;106148;1277;137822;-88
2022/04/30 05:01:40;;;;;;;11.50;5.70;;;;;;;5.46;64.72;99171.68;106087;1278;22591;-88
2022/04/30 05:04:08;;;;;;;6.90;4.40;;;;;;;5.57;64.46;99171.41;106218;1277;137454;-88
2022/04/30 05:06:35;;;;;;;10.80;5.20;;;;;;;5.67;64.31;99175.81;106353;1280;22609;-87
2022/04/30 05:09:02;;;;;;;12.00;6.00;;;;;;;5.75;64.41;99171.96;106225;1280;25339;-87
2022/04/30 05:11:28;;;;;;;12.50;6.50;;;;;;;5.84;64.54;99169.59;106570;1277;137358;-88
2022/04/30 05:13:55;;;;;;;15.30;5.60;;;;;;;5.95;64.14;99173.17;106151;1277;24361;-87
2022/04/30 05:16:21;;;;;;;14.40;6.80;;;;;;;6.05;63.99;99173.95;106418;1277;137980;-87
2022/04/30 05:18:47;;;;;;;13.70;6.50;;;;;;;6.16;64.02;99171.13;106134;1277;22570;-87
2022/04/30 05:21:13;;;;;;;11.60;5.70;;;;;;;6.27;64.32;99169.85;106054;1280;22584;-87
2022/04/30 05:23:39;;;;;;;11.40;6.60;;;;;;;6.40;64.27;99166.75;105934;1281;137204;-87
2022/04/30 05:26:06;;;;;;;12.70;5.60;;;;;;;6.53;64.52;99163.02;106219;1280;24277;-86
2022/04/30 05:28:32;;;;;;;9.60;5.70;;;;;;;6.68;64.64;99164.71;105937;1280;137564;-87
2022/04/30 05:30:58;;;;;;;10.00;5.50;;;;;;;6.85;64.58;99164.35;106244;1277;25264;-87
2022/04/30 05:33:24;;;;;;;10.90;6.20;;;;;;;6.99;64.48;99165.27;106220;1277;137523;-86
2022/04/30 05:35:50;;;;;;;10.30;6.10;;;;;;;7.12;64.72;99164.02;106211;1277;25454;-87
2022/04/30 05:38:17;;;;;;;11.10;6.40;;;;;;;7.24;64.08;99164.91;106175;1278;22596;-86
2022/04/30 05:40:43;;;;;;;12.50;6.90;;;;;;;7.39;64.61;99165.81;106325;1278;137492;-87
2022/04/30 05:43:09;;;;;;;10.70;6.30;;;;;;;7.55;64.44;99166.70;105970;1280;22557;-87
2022/04/30 05:45:35;;;;;;;10.50;6.10;;;;;;;7.72;63.56;99165.52;106232;1280;137536;-86
2022/04/30 05:48:02;;;;;;;10.90;6.40;;;;;;;7.89;63.09;99163.35;106132;1280;22560;-87
2022/04/30 05:50:28;;;;;;;12.20;6.70;;;;;;;8.05;62.90;99165.54;106205;1277;22538;-85
2022/04/30 05:52:54;;;;;;;15.10;6.80;;;;;;;8.16;62.31;99161.31;106200;1278;137292;-85
2022/04/30 05:55:20;;;;;;;11.10;6.90;;;;;;;8.29;62.51;99168.79;106400;1277;24336;-85
2022/04/30 05:57:47;;;;;;;12.20;6.50;;;;;;;8.41;62.77;99165.43;106267;1277;137583;-85
2022/04/30 06:00:14;;;;;;;12.70;7.70;;;;;;;8.55;62.70;99162.48;106253;1277;22724;-85
2022/04/30 06:02:40;;;;;;;13.80;6.40;;;;;;;8.69;62.73;99162.83;106365;1277;25481;-85
2022/04/30 06:05:08;;;;;;;10.40;5.80;;;;;;;8.83;62.46;99162.54;106112;1277;137832;-86
2022/04/30 06:07:34;;;;;;;12.60;6.70;;;;;;;8.96;62.18;99162.34;106181;1278;23971;-86
2022/04/30 06:10:00;;;;;;;14.20;5.90;;;;;;;9.08;62.17;99160.01;106830;1277;137690;-86
2022/04/30 06:12:27;;;;;;;13.00;6.80;;;;;;;9.21;61.83;99156.64;106403;1277;25312;-86
2022/04/30 06:14:53;;;;;;;13.40;6.70;;;;;;;9.36;61.66;99158.00;105936;1277;24215;-86
2022/04/30 06:17:19;;;;;;;12.30;6.40;;;;;;;9.49;61.22;99158.02;106005;1277;137609;-86
2022/04/30 06:19:45;;;;;;;13.10;6.50;;;;;;;9.62;60.88;99158.21;105989;1277;24248;-86
2022/04/30 06:22:11;;;;;;;13.50;6.80;;;;;;;9.75;60.91;99161.16;105925;1280;137908;-85
2022/04/30 06:24:38;;;;;;;10.90;6.30;;;;;;;9.89;60.73;99158.58;106093;1280;22720;-85
2022/04/30 06:27:05;;;;;;;11.30;6.00;;;;;;;10.07;60.57;99154.75;105851;1280;26602;-85
2022/04/30 06:29:31;;;;;;;16.90;6.50;;;;;;;10.24;60.40;99154.39;105812;1280;137620;-85
2022/04/30 06:31:58;;;;;;;13.30;6.40;;;;;;;10.44;60.39;99155.31;105916;1277;22679;-85
2022/04/30 06:34:24;;;;;;;11.00;6.30;;;;;;;10.63;59.99;99151.08;105951;1277;137843;-85
2022/04/30 06:36:50;;;;;;;15.90;6.80;;;;;;;10.78;59.04;99152.82;106193;1277;22557;-85
2022/04/30 06:39:17;;;;;;;16.50;7.10;;;;;;;10.95;58.35;99150.63;105941;1280;22564;-85
2022/04/30 06:41:43;;;;;;;11.30;6.50;;;;;;;11.11;57.97;99148.77;106127;1277;137640;-85
2022/04/30 06:44:11;;;;;;;12.90;6.80;;;;;;;11.27;57.62;99151.59;106103;1277;22616;-85
2022/04/30 06:46:37;;;;;;;16.40;7.00;;;;;;;11.44;57.63;99152.78;105808;1278;137860;-85
2022/04/30 06:49:04;;;;;;;12.50;6.10;;;;;;;11.60;56.77;99153.06;106734;1277;24275;-85
2022/04/30 06:51:30;;;;;;;14.70;6.80;;;;;;;11.76;55.76;99151.39;106654;1277;138570;-85
2022/04/30 06:59:17;;;;;;;10.40;6.20;;;;;;;12.25;55.02;99146.27;106326;1277;137967;-84
2022/04/30 07:02:01;;;;;;;9.60;5.90;;;;;;;12.39;54.92;99143.05;106581;1277;22548;-83
2022/04/30 07:04:29;;;;;;;9.30;4.90;;;;;;;12.53;54.15;99145.35;106580;1277;137572;-83
2022/04/30 07:06:56;;;;;;;7.00;4.10;;;;;;;12.63;51.18;99142.58;107014;1278;24218;-83
2022/04/30 07:09:22;;;;;;;8.80;3.80;;;;;;;12.79;51.00;99138.72;107699;1277;23392;-83
2022/04/30 07:11:48;;;;;;;9.70;4.40;;;;;;;12.94;50.18;99138.69;106522;1278;138213;-83
2022/04/30 07:14:14;;;;;;;9.30;4.60;;;;;;;13.10;49.84;99139.81;106415;1278;22599;-83
2022/04/30 07:16:42;;;;;;;6.70;4.20;;;;;;;13.25;48.90;99137.20;106419;1277;138505;-83
2022/04/30 07:19:08;;;;;;;9.10;4.90;;;;;;;13.38;47.16;99131.55;106436;1277;22597;-83
2022/04/30 07:21:35;;;;;;;6.80;3.90;;;;;;;13.51;47.38;99135.60;106433;1278;137847;-83
2022/04/30 07:24:01;;;;;;;9.50;4.60;;;;;;;13.65;47.20;99142.19;106570;1278;24094;-83
2022/04/30 07:26:28;;;;;;;7.90;4.50;;;;;;;13.79;46.91;99139.52;106383;1279;23975;-83
2022/04/30 07:28:54;;;;;;;6.70;4.60;;;;;;;13.92;44.70;99138.73;106432;1280;137535;-83
2022/04/30 07:31:20;;;;;;;8.70;5.00;;;;;;;13.99;42.96;99137.58;106579;1280;22553;-83
2022/04/30 07:33:48;;;;;;;7.40;4.80;;;;;;;14.03;42.71;99136.98;106590;1277;138448;-83
2022/04/30 07:36:14;;;;;;;8.40;4.70;;;;;;;14.08;43.64;99136.40;106534;1277;24255;-83
2022/04/30 07:38:40;;;;;;;6.90;4.50;;;;;;;14.17;43.42;99132.48;106539;1277;22778;-83
2022/04/30 07:41:06;;;;;;;5.80;4.30;;;;;;;14.30;43.56;99129.05;106305;1277;138986;-83
2022/04/30 07:43:33;;;;;;;9.30;4.50;;;;;;;14.43;43.02;99127.08;105777;1280;22556;-83
2022/04/30 07:45:59;;;;;;;7.90;4.10;;;;;;;14.57;42.52;99125.63;105785;1280;138663;-83
2022/04/30 07:48:25;;;;;;;7.30;3.90;;;;;;;14.73;41.71;99128.09;105897;1280;24011;-83
2022/04/30 07:50:57;;;;;;;9.50;4.40;;;;;;;14.88;41.74;99123.93;105758;1280;22671;-83
2022/04/30 07:53:28;;;;;;;6.10;4.30;;;;;;;15.07;41.17;99123.27;105812;1277;137644;-82
2022/04/30 07:56:09;;;;;;;7.90;4.80;;;;;;;15.23;40.67;99117.40;105972;1277;22548;-83
2022/04/30 07:58:37;;;;;;;7.10;3.80;;;;;;;15.33;39.85;99119.95;105967;1277;137518;-83
2022/04/30 08:01:03;;;;;;;7.70;4.50;;;;;;;15.38;40.31;99115.55;106089;1277;23933;-83
2022/04/30 08:03:32;;;;;;;12.30;5.60;;;;;;;15.45;40.01;99116.27;105775;1280;137796;-82
2022/04/30 08:05:58;;;;;;;8.70;4.70;;;;;;;15.53;39.88;99120.03;105721;1280;323847;-82
2022/04/30 08:08:24;;;;;;;8.60;4.70;;;;;;;15.58;38.27;99117.45;105928;1280;25407;-83
2022/04/30 08:10:51;;;;;;;8.40;4.50;;;;;;;15.60;38.28;99118.18;105800;1280;137624;-82
2022/04/30 08:13:17;;;;;;;6.50;4.50;;;;;;;15.61;38.61;99119.55;106129;1277;23169;-83
2022/04/30 08:15:43;;;;;;;6.50;4.00;;;;;;;15.67;38.43;99120.42;105886;1277;137795;-83
2022/04/30 08:18:10;;;;;;;5.80;4.40;;;;;;;15.72;38.82;99122.13;105959;1278;22563;-83
2022/04/30 08:20:38;;;;;;;6.40;4.40;;;;;;;15.79;38.65;99123.13;105916;1277;22573;-83
2022/04/30 08:23:08;;;;;;;7.90;4.40;;;;;;;15.84;38.31;99125.27;106614;1278;138070;-83
2022/04/30 08:25:35;;;;;;;5.40;4.30;;;;;;;15.89;37.94;99125.95;106361;1280;22571;-83
2022/04/30 08:28:02;;;;;;;7.30;4.20;;;;;;;15.99;37.36;99129.48;106113;1277;137765;-83
2022/04/30 08:30:28;;;;;;;7.80;5.20;;;;;;;16.07;37.41;99129.81;106821;1277;24322;-83
2022/04/30 08:32:55;;;;;;;8.30;4.20;;;;;;;16.20;37.35;99129.13;106509;1277;22663;-83
2022/04/30 08:35:21;;;;;;;7.50;4.80;;;;;;;16.30;37.35;99128.30;106435;1280;137870;-83
2022/04/30 08:37:50;;;;;;;5.70;4.50;;;;;;;16.36;37.37;99130.64;106153;1280;24269;-83
2022/04/30 08:40:16;;;;;;;;;;;;;;;16.40;37.61;99132.48;105631;1280;137613;-84
2022/04/30 08:42:43;;;;;;;6.30;4.30;;;;;;;16.45;36.15;99133.98;105852;1280;22566;-83
2022/04/30 08:45:12;;;;;;;6.20;3.90;;;;;;;16.43;35.31;99126.95;105851;1277;22560;-82
2022/04/30 08:47:47;;;;;;;7.70;4.60;;;;;;;16.44;36.99;99125.13;105869;1277;137591;-83
2022/04/30 08:50:30;;;;;;;9.50;5.50;;;;;;;16.51;37.11;99131.33;105836;1277;25339;-84
2022/04/30 08:52:57;;;;;;;9.10;5.30;;;;;;;16.57;36.32;99125.25;105911;1277;137487;-85
2022/04/30 08:55:23;;;;;;;7.60;4.60;;;;;;;16.63;36.12;99123.41;105764;1280;24238;-83
2022/04/30 08:57:50;;;;;;;6.40;4.50;;;;;;;16.70;36.85;99122.45;105867;1280;137816;-83
2022/04/30 09:00:16;;;;;;;9.90;5.20;;;;;;;16.73;36.76;99125.48;105750;1280;22593;-84
2022/04/30 09:02:55;;;;;;;7.10;4.80;;;;;;;16.80;36.45;99125.91;105824;1280;24426;-85
2022/04/30 09:05:22;;;;;;;8.30;5.30;;;;;;;16.94;35.92;99115.91;105616;1277;138539;-83
2022/04/30 09:07:56;;;;;;;8.20;5.50;;;;;;;17.07;35.84;99114.23;105972;1277;25260;-82
2022/04/30 09:10:30;;;;;;;8.10;5.20;;;;;;;17.20;36.59;99107.00;105803;1277;137408;-83
2022/04/30 09:13:05;;;;;;;8.10;5.20;;;;;;;17.39;36.75;99100.95;105901;1277;25258;-82
2022/04/30 09:15:32;;;;;;;11.50;5.30;;;;;;;17.55;36.35;99100.65;105836;1278;137876;-82
2022/04/30 09:18:00;;;;;;;8.00;5.40;;;;;;;17.60;36.29;99099.38;105870;1280;22580;-82
2022/04/30 09:20:27;;;;;;;7.50;5.40;;;;;;;17.61;36.18;99093.88;105921;1280;22559;-82
2022/04/30 09:22:54;;;;;;;10.10;5.40;;;;;;;17.63;35.96;99088.40;106142;1278;137573;-83
2022/04/30 09:25:20;;;;;;;7.20;5.30;;;;;;;17.62;35.46;99090.28;106412;1277;22646;-82
2022/04/30 09:27:52;;;;;;;9.20;5.10;;;;;;;17.63;36.21;99092.31;105985;1277;137789;-82
2022/04/30 09:30:29;;;;;;;8.20;5.30;;;;;;;17.68;35.48;99088.14;105781;1277;22914;-82
2022/04/30 09:33:06;;;;;;;8.30;4.90;;;;;;;17.69;35.45;99088.19;105951;1277;25514;-83
2022/04/30 09:38:15;;;;;;;8.20;5.30;;;;;;;17.71;35.88;99088.02;105947;1279;25329;-84
2022/04/30 09:40:55;;;;;;;9.30;5.50;;;;;;;17.71;35.76;99086.42;105845;1280;137562;-83
2022/04/30 09:43:31;;;;;;;8.10;5.00;;;;;;;17.68;35.76;99087.70;105691;1280;22639;-84
2022/04/30 09:46:00;;;;;;;9.50;4.40;;;;;;;17.74;35.55;99085.15;105723;1277;137971;-82
2022/04/30 09:53:56;;;;;;;7.60;5.50;;;;;;;17.97;34.41;99077.43;106012;1278;137262;-82
2022/04/30 09:56:45;;;;;;;7.70;5.50;;;;;;;18.01;34.86;99071.09;106088;1277;24234;-82
2022/04/30 09:59:14;;;;;;;9.10;5.20;;;;;;;18.09;34.38;99066.83;106183;1279;137707;-82
2022/04/30 10:01:47;;;;;;;7.10;4.90;;;;;;;18.16;34.45;99067.73;106376;1279;22549;-82
2022/04/30 10:04:16;;;;;;;7.50;4.80;;;;;;;18.26;33.63;99066.23;106769;1279;137537;-83
2022/04/30 10:06:45;;;;;;;8.40;4.60;;;;;;;18.31;33.35;99063.63;106401;1277;25296;-83
2022/04/30 10:09:24;;;;;;;6.80;5.20;;;;;;;18.37;33.61;99062.61;106862;1277;23987;-82
2022/04/30 10:11:56;;;;;;;11.20;4.70;;;;;;;18.51;33.87;99058.70;106555;1276;137446;-83
2022/04/30 10:14:22;;;;;;;7.40;5.40;;;;;;;18.75;33.24;99052.62;106476;1277;24537;-82
2022/04/30 10:19:31;;;;;;;8.50;5.30;;;;;;;19.02;31.95;99052.83;106292;1279;22612;-83
2022/04/30 10:22:13;;;;;;;8.00;5.50;;;;;;;19.06;31.78;99050.63;106516;1280;137899;-82
2022/04/30 10:24:47;;;;;;;9.70;5.70;;;;;;;19.06;31.75;99047.60;106624;1279;24214;-82
2022/04/30 10:27:15;;;;;;;7.20;4.70;;;;;;;19.09;32.18;99042.89;106820;1277;22580;-81
2022/04/30 10:29:56;;;;;;;8.80;5.00;;;;;;;19.08;31.78;99038.31;106338;1277;138058;-83
2022/04/30 10:32:37;;;;;;;9.30;5.00;;;;;;;19.06;32.17;99039.04;106799;1277;25325;-82
2022/04/30 10:35:05;;;;;;;6.10;4.50;;;;;;;19.25;33.16;99039.58;105950;1277;137511;-81
2022/04/30 10:37:37;;;;;;;8.10;4.80;;;;;;;19.34;31.74;99032.77;106241;1279;22559;-82
2022/04/30 10:40:06;;;;;;;7.80;5.20;;;;;;;19.40;31.70;99033.88;106029;1280;137872;-82
2022/04/30 10:42:40;;;;;;;9.20;5.80;;;;;;;19.42;31.48;99033.64;106342;1279;23312;-82
2022/04/30 10:45:14;;;;;;;8.00;5.00;;;;;;;19.55;31.28;99030.54;106166;1280;22568;-82
2022/04/30 10:47:53;;;;;;;6.60;4.40;;;;;;;19.60;30.66;99029.11;105996;1277;138225;-82
2022/04/30 10:50:20;;;;;;;10.10;5.60;;;;;;;19.79;31.47;99023.76;106190;1278;22632;-82
2022/04/30 10:52:51;;;;;;;8.20;4.90;;;;;;;19.97;30.70;99019.98;106139;1274;137756;-82
2022/04/30 10:55:22;;;;;;;9.70;5.20;;;;;;;20.02;28.97;99021.08;106330;1277;22713;-83
2022/04/30 10:57:49;;;;;;;8.30;5.10;;;;;;;19.90;29.27;99017.63;106123;1280;138129;-82
2022/04/30 11:00:15;;;;;;;8.50;5.00;;;;;;;19.90;29.54;99010.77;106344;1279;24281;-82
2022/04/30 11:02:41;;;;;;;6.30;4.60;;;;;;;20.10;30.08;99010.94;106080;1280;22559;-82
2022/04/30 11:05:19;;;;;;;6.20;4.80;;;;;;;20.28;30.27;99011.27;106232;1277;137594;-82
2022/04/30 11:07:50;;;;;;;12.30;5.60;;;;;;;20.51;30.14;99007.54;106283;1277;24266;-83
2022/04/30 11:10:17;;;;;;;7.20;5.00;;;;;;;20.70;30.13;99001.95;106341;1277;137808;-82
2022/04/30 11:12:44;;;;;;;8.50;5.30;;;;;;;20.76;29.66;99002.64;105904;1277;22560;-84
2022/04/30 11:15:14;;;;;;;8.30;5.80;;;;;;;20.81;29.41;99001.39;105741;1277;25242;-84
2022/04/30 11:17:48;;;;;;;5.80;5.20;;;;;;;20.80;29.25;98999.46;106135;1277;137666;-82
2022/04/30 11:20:22;;;;;;;10.70;5.70;;;;;;;20.77;28.63;98994.42;105834;1280;22725;-83
2022/04/30 11:23:03;;;;;;;12.50;5.30;;;;;;;20.71;29.79;98996.51;105814;1279;137759;-83
2022/04/30 11:25:36;;;;;;;7.80;5.00;;;;;;;20.75;29.45;98994.05;105811;1279;22692;-83
2022/04/30 11:28:08;;;;;;;7.00;4.90;;;;;;;20.75;28.34;98990.42;105767;1277;137680;-83
2022/04/30 11:30:46;;;;;;;7.90;4.90;;;;;;;20.77;28.75;98987.52;106287;1277;24274;-83
2022/04/30 11:33:13;;;;;;;8.60;5.30;;;;;;;20.84;28.54;98985.29;105942;1277;22619;-82
2022/04/30 11:35:55;;;;;;;8.20;5.50;;;;;;;20.83;28.80;98985.70;106011;1277;137577;-82
2022/04/30 11:38:21;;;;;;;8.70;6.20;;;;;;;20.78;29.06;98979.52;105984;1277;22563;-82
2022/04/30 11:41:07;;;;;;;9.00;5.60;;;;;;;20.68;30.10;98979.39;105878;1280;137556;-82
2022/04/30 11:43:36;;;;;;;7.70;4.60;;;;;;;20.57;30.29;98980.73;106101;1279;22559;-82
2022/04/30 11:46:17;;;;;;;6.80;4.80;;;;;;;20.42;29.81;98979.60;105712;1280;137806;-81
2022/04/30 11:48:58;;;;;;;7.00;4.90;;;;;;;20.27;29.41;98980.02;105944;1277;22703;-82
2022/04/30 11:51:28;;;;;;;8.70;4.50;;;;;;;20.14;29.62;98981.40;106052;1277;22624;-82
2022/04/30 11:53:54;;;;;;;8.50;5.20;;;;;;;20.04;29.43;98977.44;105742;1277;137538;-83
2022/04/30 11:56:21;;;;;;;6.50;4.30;;;;;;;19.95;29.36;98980.20;105945;1277;22803;-82
2022/04/30 11:58:47;;;;;;;7.40;4.40;;;;;;;19.89;29.43;98973.19;105822;1280;137725;-81
2022/04/30 12:01:21;;;;;;;7.20;4.60;;;;;;;19.95;29.94;98972.45;105920;1279;24405;-82
2022/04/30 12:04:05;;;;;;;7.60;4.90;;;;;;;19.95;29.53;98966.87;105857;1279;138172;-83
2022/04/30 12:06:36;;;;;;;6.40;4.50;;;;;;;19.89;29.51;98959.74;105960;1280;22567;-82
2022/04/30 12:09:16;;;;;;;;;;;;;;;19.79;29.47;98958.76;105988;1277;25251;-82
2022/04/30 12:11:44;;;;;;;7.80;4.50;;;;;;;19.64;30.63;98960.66;105624;1277;124663;-82